createdAt,value
2019-02-28T00:00:52.448Z,100142.59
2019-02-28T00:03:20.648Z,100137.41
2019-02-28T00:05:47.356Z,100139.09
2019-02-28T00:08:14.027Z,100137.47
2019-02-28T00:10:40.707Z,100143.32
2019-02-28T00:13:07.295Z,100135.04
2019-02-28T00:15:33.944Z,100135.87
2019-02-28T00:18:00.531Z,100134.49
2019-02-28T00:20:29.116Z,100121.16
2019-02-28T00:22:55.860Z,100116.16
2019-02-28T00:25:22.471Z,100116.64
2019-02-28T00:27:49.265Z,100108.47
2019-02-28T00:30:16.184Z,100106.58
2019-02-28T00:32:42.793Z,100110.80
2019-02-28T00:35:12.949Z,100103.67
2019-02-28T00:37:38.213Z,100097.81
2019-02-28T00:40:07.973Z,100090.25
2019-02-28T00:42:34.682Z,100083.55
2019-02-28T00:45:02.687Z,100075.66
2019-02-28T00:47:30.195Z,100084.36
2019-02-28T00:49:56.800Z,100068.53
2019-02-28T00:52:23.448Z,100057.09
2019-02-28T00:55:27.147Z,100058.43
2019-02-28T00:57:55.389Z,100066.64
2019-02-28T01:00:22.470Z,100051.73
2019-02-28T01:02:53.547Z,100049.90
2019-02-28T01:05:18.147Z,100043.13
2019-02-28T01:07:48.057Z,100030.20
2019-02-28T01:11:10.441Z,100019.43
2019-02-28T01:13:38.683Z,100020.42
2019-02-28T01:16:05.429Z,100006.45
2019-02-28T01:18:34.475Z,100008.84
2019-02-28T01:21:00.655Z,100006.16
2019-02-28T01:23:29.391Z,100001.27
2019-02-28T01:25:56.902Z,99989.14
2019-02-28T01:28:27.050Z,99991.88
2019-02-28T01:31:50.534Z,99985.29
2019-02-28T01:34:17.155Z,99987.09
2019-02-28T01:36:45.965Z,99974.62
2019-02-28T01:39:12.339Z,99971.91
2019-02-28T01:41:39.109Z,99966.61
2019-02-28T01:44:05.732Z,99958.34
2019-02-28T01:46:32.276Z,99947.53
2019-02-28T01:48:58.847Z,99942.52
2019-02-28T01:51:25.566Z,99936.66
2019-02-28T01:53:53.645Z,99926.00
2019-02-28T01:56:20.647Z,99920.94
2019-02-28T01:58:47.573Z,99927.48
2019-02-28T02:01:15.956Z,99914.34
2019-02-28T02:03:42.665Z,99913.61
2019-02-28T02:06:09.540Z,99904.08
2019-02-28T02:09:32.453Z,99889.98
2019-02-28T02:11:59.196Z,99896.97
2019-02-28T02:14:25.736Z,99891.07
2019-02-28T02:16:52.446Z,99888.65
2019-02-28T02:19:19.115Z,99883.50
2019-02-28T02:21:45.776Z,99876.55
2019-02-28T02:24:12.395Z,99864.89
2019-02-28T02:26:42.346Z,99858.22
2019-02-28T02:29:07.949Z,99851.34
2019-02-28T02:31:34.587Z,99843.69
2019-02-28T02:34:01.428Z,99835.73
2019-02-28T02:36:28.168Z,99834.49
2019-02-28T02:38:55.225Z,99832.21
2019-02-28T02:41:21.870Z,99827.16
2019-02-28T02:43:48.526Z,99818.28
2019-02-28T02:46:19.478Z,99822.68
2019-02-28T02:49:39.962Z,99810.84
2019-02-28T02:52:06.603Z,99811.43
2019-02-28T02:54:33.290Z,99799.92
2019-02-28T02:56:59.911Z,99805.13
2019-02-28T02:59:26.483Z,99800.98
2019-02-28T03:01:56.210Z,99792.73
2019-02-28T03:04:23.197Z,99793.81
2019-02-28T03:06:50.175Z,99780.17
2019-02-28T03:09:16.777Z,99778.11
2019-02-28T03:11:43.331Z,99775.65
2019-02-28T03:14:09.972Z,99766.27
2019-02-28T03:16:36.731Z,99755.86
2019-02-28T03:19:03.612Z,99750.56
2019-02-28T03:21:30.786Z,99743.78
2019-02-28T03:23:57.473Z,99739.64
2019-02-28T03:26:24.073Z,99736.95
2019-02-28T03:28:50.681Z,99734.19
2019-02-28T03:32:13.679Z,99733.00
2019-02-28T03:34:40.455Z,99719.14
2019-02-28T03:37:07.141Z,99702.53
2019-02-28T03:39:33.881Z,99697.64
2019-02-28T03:42:01.034Z,99701.09
2019-02-28T03:44:27.652Z,99689.70
2019-02-28T03:46:54.615Z,99679.02
2019-02-28T03:49:21.285Z,99671.94
2019-02-28T03:51:47.883Z,99664.27
2019-02-28T03:54:14.514Z,99656.87
2019-02-28T03:56:41.126Z,99661.14
2019-02-28T03:59:07.910Z,99649.30
2019-02-28T04:01:34.528Z,99642.50
2019-02-28T04:04:58.774Z,99640.55
2019-02-28T04:07:25.684Z,99631.19
2019-02-28T04:09:52.443Z,99629.88
2019-02-28T04:12:19.210Z,99628.17
2019-02-28T04:14:45.893Z,99629.23
2019-02-28T04:17:13.804Z,99619.14
2019-02-28T04:19:40.730Z,99612.58
2019-02-28T04:22:07.284Z,99613.63
2019-02-28T04:24:33.915Z,99607.69
2019-02-28T04:27:06.530Z,99605.16
2019-02-28T04:29:31.145Z,99603.69
2019-02-28T04:31:58.158Z,99593.80
2019-02-28T04:34:24.921Z,99585.47
2019-02-28T04:36:51.527Z,99571.61
2019-02-28T04:40:15.691Z,99566.59
2019-02-28T04:42:42.601Z,99564.61
2019-02-28T04:45:13.081Z,99565.14
2019-02-28T04:47:40.537Z,99554.42
2019-02-28T04:51:24.699Z,99550.64
2019-02-28T04:53:53.006Z,99546.22
2019-02-28T04:56:19.903Z,99549.98
2019-02-28T04:58:46.499Z,99541.95
2019-02-28T05:01:13.507Z,99535.75
2019-02-28T05:03:40.441Z,99529.25
2019-02-28T05:06:07.223Z,99525.58
2019-02-28T05:08:38.588Z,99520.52
2019-02-28T05:11:03.814Z,99518.42
2019-02-28T05:13:31.641Z,99520.61
2019-02-28T05:15:58.213Z,99530.59
2019-02-28T05:18:27.622Z,99528.66
2019-02-28T05:20:53.660Z,99525.08
2019-02-28T05:23:20.238Z,99524.39
2019-02-28T05:25:49.088Z,99522.06
2019-02-28T05:28:15.375Z,99507.64
2019-02-28T05:30:41.961Z,99498.06
2019-02-28T05:33:08.553Z,99490.16
2019-02-28T05:35:57.174Z,99482.64
2019-02-28T05:38:23.740Z,99487.92
2019-02-28T05:40:50.544Z,99486.80
2019-02-28T05:43:17.208Z,99474.27
2019-02-28T05:45:48.714Z,99469.23
2019-02-28T05:48:12.429Z,99471.12
2019-02-28T05:50:39.738Z,99459.81
2019-02-28T05:53:09.331Z,99455.41
2019-02-28T05:55:35.291Z,99454.01
2019-02-28T05:58:02.116Z,99457.17
2019-02-28T06:00:28.967Z,99451.72
2019-02-28T06:02:58.065Z,99451.60
2019-02-28T06:05:24.166Z,99445.25
2019-02-28T06:07:51.003Z,99430.00
2019-02-28T06:10:23.349Z,99418.73
2019-02-28T06:12:46.460Z,99416.12
2019-02-28T06:15:15.252Z,99413.91
2019-02-28T06:18:41.639Z,99408.66
2019-02-28T06:21:10.129Z,99415.41
2019-02-28T06:23:36.894Z,99415.25
2019-02-28T06:26:03.952Z,99410.97
2019-02-28T06:28:31.133Z,99417.27
2019-02-28T06:31:00.471Z,99421.84
2019-02-28T06:33:27.339Z,99423.36
2019-02-28T06:35:54.551Z,99417.44
2019-02-28T06:38:21.460Z,99402.25
2019-02-28T06:40:48.062Z,99391.44
2019-02-28T06:43:14.698Z,99392.03
2019-02-28T06:45:41.387Z,99389.41
2019-02-28T06:48:08.260Z,99376.40
2019-02-28T06:50:34.978Z,99375.36
2019-02-28T06:53:01.660Z,99381.45
2019-02-28T06:55:28.302Z,99365.41
2019-02-28T06:57:55.080Z,99348.65
2019-02-28T07:00:22.054Z,99350.87
2019-02-28T07:02:50.160Z,99349.27
2019-02-28T07:05:17.342Z,99356.24
2019-02-28T07:07:45.824Z,99356.31
2019-02-28T07:10:16.313Z,99348.39
2019-02-28T07:37:55.499Z,99287.70
2019-02-28T07:40:22.254Z,99278.55
2019-02-28T07:42:49.144Z,99277.48
2019-02-28T07:45:16.189Z,99285.58
2019-02-28T07:47:43.102Z,99277.27
2019-02-28T07:50:12.731Z,99264.44
2019-02-28T07:52:39.588Z,99263.23
2019-02-28T07:55:11.465Z,99266.36
2019-02-28T07:57:38.171Z,99277.16
2019-02-28T08:00:17.139Z,99280.94
2019-02-28T08:02:40.158Z,99272.97
2019-02-28T08:05:11.248Z,99261.76
2019-02-28T08:07:39.259Z,99244.68
2019-02-28T08:10:12.772Z,99229.51
2019-02-28T08:12:40.083Z,99235.77
2019-02-28T08:15:13.695Z,99224.87
2019-02-28T08:17:43.635Z,99218.17
2019-02-28T08:20:11.006Z,99207.59
2019-02-28T08:22:37.623Z,99212.21
2019-02-28T08:25:09.942Z,99224.33
2019-02-28T08:27:36.590Z,99224.11
2019-02-28T08:30:08.947Z,99228.55
2019-02-28T08:32:35.689Z,99226.16
2019-02-28T08:35:06.994Z,99230.61
2019-02-28T08:37:33.675Z,99232.22
2019-02-28T08:40:00.355Z,99209.89
2019-02-28T08:42:27.046Z,99218.22
2019-02-28T08:44:58.123Z,99224.64
2019-02-28T08:47:22.281Z,99229.74
2019-02-28T08:49:48.927Z,99245.50
2019-02-28T09:10:12.742Z,99198.75
2019-02-28T09:12:40.217Z,99198.55
2019-02-28T09:15:12.269Z,99195.91
2019-02-28T09:17:39.058Z,99185.25
2019-02-28T09:20:10.506Z,99185.69
2019-02-28T09:22:38.147Z,99187.02
2019-02-28T09:25:10.033Z,99180.44
2019-02-28T09:27:38.906Z,99188.30
2019-02-28T09:30:11.041Z,99191.14
2019-02-28T09:32:37.961Z,99193.55
2019-02-28T09:35:12.288Z,99197.02
2019-02-28T09:37:35.166Z,99192.17
2019-02-28T09:40:02.022Z,99201.47
2019-02-28T09:42:28.849Z,99195.66
2019-02-28T09:44:55.632Z,99193.56
2019-02-28T09:47:26.315Z,99176.05
2019-02-28T09:49:51.727Z,99162.51
2019-02-28T09:52:18.330Z,99162.80
2019-02-28T09:54:45.087Z,99151.12
2019-02-28T09:57:11.803Z,99162.31
2019-02-28T09:59:38.674Z,99164.74
2019-02-28T10:02:09.390Z,99162.50
2019-02-28T10:04:36.964Z,99166.16
2019-02-28T10:07:03.829Z,99164.55
2019-02-28T10:09:30.713Z,99159.75
2019-02-28T10:11:57.402Z,99151.52
2019-02-28T10:14:25.673Z,99156.26
2019-02-28T10:16:53.378Z,99168.69
2019-02-28T10:19:20.121Z,99164.44
2019-02-28T10:21:51.894Z,99152.59
2019-02-28T10:24:15.223Z,99163.48
2019-02-28T10:26:41.832Z,99172.03
2019-02-28T10:29:09.552Z,99168.00
2019-02-28T10:31:38.444Z,99157.98
2019-02-28T10:34:06.977Z,99168.57
2019-02-28T10:36:33.751Z,99167.69
2019-02-28T10:39:00.483Z,99159.62
2019-02-28T10:41:28.002Z,99173.89
2019-02-28T10:43:56.067Z,99156.69
2019-02-28T10:46:22.765Z,99169.93
2019-02-28T10:48:51.054Z,99174.68
2019-02-28T10:51:18.040Z,99159.88
2019-02-28T10:53:44.698Z,99169.55
2019-02-28T10:56:12.057Z,99160.20
2019-02-28T10:58:38.682Z,99173.95
2019-02-28T11:01:08.942Z,99156.48
2019-02-28T11:03:36.167Z,99163.94
2019-02-28T11:06:02.974Z,99169.46
2019-02-28T11:08:29.625Z,99170.96
2019-02-28T11:10:57.603Z,99172.95
2019-02-28T11:13:24.483Z,99176.29
2019-02-28T11:27:11.308Z,99182.27
2019-02-28T11:29:38.167Z,99192.06
2019-02-28T11:32:04.939Z,99199.97
2019-02-28T11:34:31.777Z,99192.14
2019-02-28T11:36:58.594Z,99185.25
2019-02-28T11:39:27.527Z,99202.83
2019-02-28T11:41:54.180Z,99193.51
2019-02-28T11:44:22.426Z,99195.31
2019-02-28T11:46:49.096Z,99191.20
2019-02-28T11:49:15.862Z,99181.98
2019-02-28T11:51:42.627Z,99183.02
2019-02-28T11:54:12.275Z,99190.88
2019-02-28T11:56:38.267Z,99192.35
2019-02-28T11:59:04.998Z,99198.44
2019-02-28T12:01:31.925Z,99195.63
2019-02-28T12:03:58.682Z,99202.48
2019-02-28T12:06:25.762Z,99196.33
2019-02-28T12:08:53.556Z,99199.52
2019-02-28T12:11:20.314Z,99193.86
2019-02-28T12:13:47.058Z,99192.33
2019-02-28T12:16:16.226Z,99176.31
2019-02-28T12:18:42.329Z,99185.64
2019-02-28T12:21:09.080Z,99177.87
2019-02-28T12:23:35.716Z,99176.78
2019-02-28T12:26:02.619Z,99171.33
2019-02-28T12:28:29.452Z,99175.36
2019-02-28T12:30:57.272Z,99197.17
2019-02-28T12:33:24.729Z,99198.36
2019-02-28T12:35:51.537Z,99203.80
2019-02-28T12:38:18.369Z,99211.40
2019-02-28T12:40:45.738Z,99209.94
2019-02-28T12:43:14.032Z,99212.81
2019-02-28T12:45:46.982Z,99217.28
2019-02-28T12:48:13.908Z,99221.44
2019-02-28T12:50:41.662Z,99224.45
2019-02-28T12:53:08.462Z,99220.41
2019-02-28T12:55:35.476Z,99224.22
2019-02-28T12:58:04.082Z,99227.30
2019-02-28T13:00:36.448Z,99217.08
2019-02-28T13:03:03.590Z,99212.95
2019-02-28T13:05:31.257Z,99211.16
2019-02-28T13:07:58.283Z,99223.11
2019-02-28T13:10:27.992Z,99226.72
2019-02-28T13:13:05.325Z,99214.58
2019-02-28T13:15:23.740Z,99210.63
2019-02-28T13:17:50.725Z,99219.81
2019-02-28T13:20:22.592Z,99216.42
2019-02-28T13:22:49.329Z,99228.73
2019-02-28T13:25:19.422Z,99227.52
2019-02-28T13:27:46.156Z,99223.42
2019-02-28T13:30:18.227Z,99221.80
2019-02-28T13:32:45.246Z,99225.47
2019-02-28T13:35:17.004Z,99239.17
2019-02-28T13:37:44.810Z,99238.47
2019-02-28T13:40:14.269Z,99241.25
2019-02-28T13:42:42.318Z,99246.37
2019-02-28T13:45:22.184Z,99241.88
2019-02-28T13:47:46.473Z,99247.11
2019-02-28T13:50:18.037Z,99246.70
2019-02-28T13:52:44.863Z,99248.34
2019-02-28T13:55:14.343Z,99252.05
2019-02-28T13:57:43.713Z,99265.34
2019-02-28T14:00:18.426Z,99261.64
2019-02-28T14:02:45.549Z,99270.98
2019-02-28T14:05:13.432Z,99251.16
2019-02-28T14:07:40.379Z,99258.89
2019-02-28T14:10:11.711Z,99275.05
2019-02-28T14:12:38.480Z,99266.69
2019-02-28T14:15:10.282Z,99273.08
2019-02-28T14:17:37.077Z,99277.16
2019-02-28T14:20:08.845Z,99278.80
2019-02-28T14:22:35.633Z,99277.84
2019-02-28T14:25:06.148Z,99271.13
2019-02-28T14:27:31.943Z,99275.30
2019-02-28T14:29:58.696Z,99269.03
2019-02-28T14:32:25.232Z,99281.94
2019-02-28T14:34:51.987Z,99286.05
2019-02-28T14:37:19.576Z,99281.53
2019-02-28T14:39:47.301Z,99277.36
2019-02-28T14:42:14.020Z,99286.39
2019-02-28T14:44:40.621Z,99281.91
2019-02-28T14:47:07.379Z,99288.66
2019-02-28T14:49:34.181Z,99288.73
2019-02-28T14:52:03.623Z,99288.33
2019-02-28T14:54:29.566Z,99295.78
2019-02-28T14:56:56.181Z,99288.59
2019-02-28T14:59:22.944Z,99293.00
2019-02-28T15:01:53.057Z,99302.77
2019-02-28T15:04:18.251Z,99302.05
2019-02-28T15:06:45.046Z,99303.04
2019-02-28T15:09:14.788Z,99303.97
2019-02-28T15:11:43.621Z,99288.52
2019-02-28T15:14:10.931Z,99305.02
2019-02-28T15:16:37.735Z,99293.39
2019-02-28T15:19:05.827Z,99317.50
2019-02-28T15:21:33.086Z,99321.31
2019-02-28T15:23:59.666Z,99323.79
2019-02-28T15:26:26.638Z,99325.01
2019-02-28T15:28:55.125Z,99333.41
2019-02-28T15:31:21.802Z,99333.36
2019-02-28T15:33:48.550Z,99332.00
2019-02-28T15:36:15.211Z,99328.42
2019-02-28T15:38:44.744Z,99336.05
2019-02-28T15:41:14.120Z,99339.97
2019-02-28T15:43:47.042Z,99341.98
2019-02-28T15:46:13.877Z,99340.20
2019-02-28T15:48:40.526Z,99340.09
2019-02-28T15:51:07.454Z,99348.93
2019-02-28T15:53:34.222Z,99343.67
2019-02-28T15:56:01.184Z,99352.85
2019-02-28T15:58:27.806Z,99348.20
2019-02-28T16:00:56.582Z,99360.92
2019-02-28T16:03:23.252Z,99365.25
2019-02-28T16:05:50.102Z,99370.58
2019-02-28T16:08:16.828Z,99370.34
2019-02-28T16:10:52.850Z,99376.94
2019-02-28T16:13:12.343Z,99377.78
2019-02-28T16:15:43.287Z,99391.70
2019-02-28T16:18:12.066Z,99396.25
2019-02-28T16:20:38.362Z,99396.61
2019-02-28T16:23:08.636Z,99409.05
2019-02-28T16:25:37.476Z,99408.44
2019-02-28T16:28:07.721Z,99408.31
2019-02-28T16:30:37.898Z,99409.17
2019-02-28T16:33:04.894Z,99419.20
2019-02-28T16:35:31.484Z,99420.34
2019-02-28T16:37:58.291Z,99428.08
2019-02-28T16:40:30.126Z,99427.91
2019-02-28T16:42:56.996Z,99432.60
2019-02-28T16:45:29.717Z,99429.31
2019-02-28T16:47:59.543Z,99432.16
2019-02-28T16:50:26.906Z,99441.38
2019-02-28T16:52:53.507Z,99451.13
2019-02-28T16:55:20.203Z,99445.93
2019-02-28T16:57:47.844Z,99451.07
2019-02-28T17:00:16.599Z,99456.27
2019-02-28T17:02:43.509Z,99461.91
2019-02-28T17:05:11.120Z,99460.95
2019-02-28T17:07:40.505Z,99460.58
2019-02-28T17:10:11.801Z,99458.04
2019-02-28T17:12:40.741Z,99471.45
2019-02-28T17:15:12.766Z,99468.37
2019-02-28T17:17:43.497Z,99476.64
2019-02-28T17:20:10.490Z,99481.55
2019-02-28T17:22:37.417Z,99489.53
2019-02-28T17:25:06.048Z,99483.25
2019-02-28T17:27:34.829Z,99487.59
2019-02-28T17:30:03.554Z,99482.11
2019-02-28T17:32:32.170Z,99491.65
2019-02-28T17:34:59.646Z,99488.66
2019-02-28T17:37:27.063Z,99491.73
2019-02-28T17:39:53.754Z,99497.13
2019-02-28T17:42:21.529Z,99498.60
2019-02-28T17:44:53.819Z,99500.83
2019-02-28T17:47:26.185Z,99504.28
2019-02-28T17:50:00.017Z,99503.69
2019-02-28T17:52:34.463Z,99504.44
2019-02-28T17:55:07.158Z,99512.39
2019-02-28T17:57:41.612Z,99514.41
2019-02-28T18:00:12.965Z,99510.75
2019-02-28T18:02:47.762Z,99516.33
2019-02-28T18:05:17.332Z,99513.37
2019-02-28T18:07:49.788Z,99516.06
2019-02-28T18:10:20.989Z,99521.84
2019-02-28T18:12:52.755Z,99517.61
2019-02-28T18:15:25.055Z,99517.61
2019-02-28T18:17:57.542Z,99518.53
2019-02-28T18:20:32.154Z,99510.98
2019-02-28T18:23:02.516Z,99507.09
2019-02-28T18:25:33.125Z,99507.12
2019-02-28T18:28:03.668Z,99501.05
2019-02-28T18:30:36.146Z,99517.39
2019-02-28T18:33:03.394Z,99516.39
2019-02-28T18:35:32.595Z,99515.38
2019-02-28T18:38:02.466Z,99520.36
2019-02-28T18:40:28.731Z,99519.48
2019-02-28T18:42:57.588Z,99522.73
2019-02-28T18:45:24.468Z,99528.63
2019-02-28T18:47:51.263Z,99528.70
2019-02-28T18:50:18.011Z,99535.10
2019-02-28T18:52:44.935Z,99539.55
2019-02-28T18:55:12.423Z,99549.61
2019-02-28T18:57:39.242Z,99555.34
2019-02-28T19:01:02.433Z,99561.30
2019-02-28T19:03:29.367Z,99568.77
2019-02-28T19:05:56.179Z,99577.13
2019-02-28T19:08:22.855Z,99582.57
2019-02-28T19:10:54.959Z,99574.84
2019-02-28T19:13:22.120Z,99576.66
2019-02-28T19:15:48.933Z,99586.41
2019-02-28T19:18:16.927Z,99585.56
2019-02-28T19:20:43.782Z,99593.95
2019-02-28T19:23:10.524Z,99603.95
2019-02-28T19:25:37.157Z,99606.44
2019-02-28T19:28:04.024Z,99628.97
2019-02-28T19:30:30.743Z,99619.61
2019-02-28T19:32:57.489Z,99633.67
2019-02-28T19:35:24.202Z,99635.85
2019-02-28T19:38:47.477Z,99638.61
2019-02-28T19:41:14.217Z,99648.84
2019-02-28T19:43:41.114Z,99666.06
2019-02-28T19:46:07.935Z,99656.05
2019-02-28T19:48:35.768Z,99657.02
2019-02-28T19:51:03.062Z,99664.31
2019-02-28T19:53:29.711Z,99664.41
2019-02-28T19:55:56.859Z,99660.62
2019-02-28T19:58:23.549Z,99667.88
2019-02-28T20:00:51.964Z,99668.89
2019-02-28T20:03:19.164Z,99670.98
2019-02-28T20:05:46.085Z,99676.20
2019-02-28T20:08:12.797Z,99682.83
2019-02-28T20:10:39.391Z,99686.80
2019-02-28T20:13:06.410Z,99683.41
2019-02-28T20:15:36.478Z,99685.84
2019-02-28T20:18:59.527Z,99685.41
2019-02-28T20:21:27.436Z,99677.27
2019-02-28T20:23:54.472Z,99685.17
2019-02-28T20:26:21.486Z,99686.83
2019-02-28T20:28:48.397Z,99689.09
2019-02-28T20:31:15.688Z,99690.17
2019-02-28T20:33:42.552Z,99696.30
2019-02-28T20:36:09.656Z,99697.66
2019-02-28T20:38:37.255Z,99699.08
2019-02-28T20:41:04.282Z,99692.50
2019-02-28T20:43:31.008Z,99696.94
2019-02-28T20:45:58.148Z,99691.77
2019-02-28T20:49:40.271Z,99694.38
2019-02-28T20:52:07.254Z,99685.59
2019-02-28T20:54:34.509Z,99691.45
2019-02-28T20:57:01.302Z,99692.01
2019-02-28T20:59:31.061Z,99697.58
2019-02-28T21:01:58.021Z,99694.27
2019-02-28T21:04:24.904Z,99701.50
2019-02-28T21:06:53.157Z,99700.31
2019-02-28T21:09:23.736Z,99690.41
2019-02-28T21:11:50.792Z,99693.57
2019-02-28T21:14:18.383Z,99699.07
2019-02-28T21:16:46.759Z,99697.20
2019-02-28T21:19:13.530Z,99700.98
2019-02-28T21:21:40.258Z,99703.81
2019-02-28T21:24:07.056Z,99701.63
2019-02-28T21:26:33.987Z,99697.52
2019-02-28T21:29:01.263Z,99706.28
2019-02-28T21:31:28.154Z,99694.48
2019-02-28T21:33:54.909Z,99693.22
2019-02-28T21:36:21.991Z,99698.86
2019-02-28T21:38:49.063Z,99689.61
2019-02-28T21:41:16.717Z,99694.75
2019-02-28T21:43:43.895Z,99695.34
2019-02-28T21:46:10.741Z,99691.62
2019-02-28T21:48:37.440Z,99694.78
2019-02-28T21:51:04.394Z,99688.52
2019-02-28T21:53:31.874Z,99695.60
2019-02-28T21:55:59.221Z,99693.49
2019-02-28T21:58:26.612Z,99697.84
2019-02-28T22:00:54.164Z,99695.28
2019-02-28T22:03:21.149Z,99696.05
2019-02-28T22:05:49.020Z,99695.75
2019-02-28T22:08:18.736Z,99696.16
2019-02-28T22:10:45.524Z,99699.62
2019-02-28T22:13:12.127Z,99695.89
2019-02-28T22:15:38.835Z,99697.50
2019-02-28T22:18:05.577Z,99701.67
2019-02-28T22:20:32.758Z,99705.09
2019-02-28T22:23:56.102Z,99707.84
2019-02-28T22:26:22.907Z,99709.94
2019-02-28T22:28:49.532Z,99709.30
2019-02-28T22:31:25.583Z,99715.16
2019-02-28T22:33:54.170Z,99724.75
2019-02-28T22:36:22.807Z,99717.34
2019-02-28T22:38:49.484Z,99716.44
2019-02-28T22:41:16.284Z,99727.95
2019-02-28T22:43:43.007Z,99727.81
2019-02-28T22:46:09.807Z,99729.48
2019-02-28T22:48:36.450Z,99730.47
2019-02-28T22:51:03.591Z,99735.64
2019-02-28T22:53:33.288Z,99725.11
2019-02-28T22:56:00.032Z,99736.09
2019-02-28T22:58:26.813Z,99744.48
2019-02-28T23:01:01.036Z,99736.35
2019-02-28T23:03:32.254Z,99745.98
2019-02-28T23:05:59.333Z,99740.99
2019-02-28T23:08:26.139Z,99739.05
2019-02-28T23:10:53.083Z,99740.22
2019-02-28T23:13:19.926Z,99741.53
2019-02-28T23:15:46.555Z,99741.84
2019-02-28T23:18:13.223Z,99743.05
2019-02-28T23:20:39.838Z,99738.40
2019-02-28T23:23:06.649Z,99741.50
2019-02-28T23:25:33.223Z,99738.35
2019-02-28T23:28:05.622Z,99740.50
2019-02-28T23:30:38.061Z,99750.13
2019-02-28T23:33:04.973Z,99742.47
2019-02-28T23:35:33.882Z,99737.62
2019-02-28T23:38:00.980Z,99735.74
2019-02-28T23:40:27.849Z,99742.83
2019-02-28T23:42:54.625Z,99739.67
2019-02-28T23:45:21.400Z,99744.09
2019-02-28T23:47:47.965Z,99744.59
2019-02-28T23:50:14.675Z,99753.48
2019-02-28T23:52:41.385Z,99758.23
2019-02-28T23:55:08.750Z,99764.84
2019-02-28T23:57:35.352Z,99762.28
